VDPP/PNH METAR and TAF weather

Enter ICAO airport designator
Station Type Date Time Source
VDPP METAR 2024/05/29 00:00 UTC NOAA

VDPP 290000Z 21004KT 170V250 9000 SCT015 SCT040 30/25 Q1006


Station Type Date Time Source
VDPP Decoded METAR 2024/05/29 00:00 UTC NOAA

Phnom-Penh / Pochentong, Cambodia (VDPP) 11-33N 104-51E 10M
May 28, 2024 - 08:00 PM EDT / 2024.05.29 0000 UTC
Wind: from the SSW (210 degrees) at 5 MPH (4 KT) (direction variable):0
Visibility: 5 mile(s):0
Sky conditions: partly cloudy
Temperature: 86 F (30 C)
Heat index: 96.8 F (36.0 C):1
Dew Point: 77 F (25 C)
Relative Humidity: 74%
Pressure (altimeter): 29.71 in. Hg (1006 hPa)
ob: VDPP 290000Z 21004KT 170V250 9000 SCT015 SCT040 30/25 Q1006
cycle: 0

Station Type Date Time Source
VDPP TAF 2024/05/28 18:36 UTC NOAA